Carolina Forest, South Carolina
Current Conditions -  °F | °C
As of 1:45 PM on Saturday 25 Oct 2014 (Local Time) from KMYR Reporting Station
Clear Clear  
Wind Chill: 73°   Ceiling: Unl
Heat Index: 73°   Visibility: 10mi
Dew Point: 43°   Wind: 9mph
Humidity: 33%   Direction: 290°WNW
Pressure: 29.97"   Gusts: NA
Location:  33.7109°N, 78.9964°W
Report Text: KMYR 251745Z 29008KT 10SM CLR 23/06 A2997
Loading
Personal Weather Stations






























Interactive Weather Map New forecast layout! Learn more

10-Day Weather Forecast

Advertisements
Track Severe Weather on mobile